| time (UTC) | temp F | wind direction | speed MPH | gust MPH | rain 1hr in | rain 24hr in | rain mn in | humidity % | barometer mb |
| 20260508120043 | 38 | 341 | 1.0 | 3.0 | 0.00 | 0.00 | 0.00 | 77 | 1013.1 |
| 20260508114536 | 40 | 341 | 1.0 | 3.0 | 0.00 | 0.00 | 0.00 | 74 | 1013.3 |
| 20260508113037 | 40 | 341 | 1.0 | 2.0 | 0.00 | 0.00 | 0.00 | 73 | 1013.3 |
| 20260508111529 | 42 | 341 | 0.0 | 3.0 | 0.00 | 0.00 | 0.00 | 70 | 1013.3 |
| 20260508110031 | 45 | 341 | 1.0 | 5.0 | 0.00 | 0.00 | 0.00 | 68 | 1013.3 |
| 20260508104525 | 46 | 341 | 1.0 | 4.0 | 0.00 | 0.00 | 0.00 | 68 | 1013.4 |
| 20260508103025 | 46 | 341 | 2.0 | 4.0 | 0.00 | 0.00 | 0.00 | 68 | 1013.5 |
| 20260508101534 | 46 | 341 | 1.0 | 4.0 | 0.00 | 0.00 | 0.00 | 66 | 1013.6 |
| 20260508100026 | 46 | 329 | 3.0 | 4.0 | 0.00 | 0.00 | 0.00 | 63 | 1013.6 |
| 20260508094523 | 48 | 314 | 4.0 | 10.0 | 0.00 | 0.00 | 0.00 | 62 | 1013.6 |
| 20260508093039 | 47 | 316 | 3.0 | 10.0 | 0.00 | 0.00 | 0.00 | 64 | 1013.5 |
| 20260508091524 | 46 | 318 | 5.0 | 13.0 | 0.00 | 0.00 | 0.00 | 62 | 1013.5 |
| 20260508090028 | 46 | 323 | 3.0 | 8.0 | 0.00 | 0.00 | 0.00 | 60 | 1013.5 |
| 20260508084516 | 42 | 299 | 3.0 | 7.0 | 0.00 | 0.00 | 0.00 | 64 | 1013.6 |
| 20260508083020 | 44 | 309 | 1.0 | 3.0 | 0.00 | 0.00 | 0.00 | 58 | 1013.5 |
| 20260508081512 | 47 | 309 | 2.0 | 6.0 | 0.00 | 0.00 | 0.00 | 56 | 1013.4 |
| 20260508080011 | 49 | 345 | 5.0 | 9.0 | 0.00 | 0.00 | 0.00 | 54 | 1013.3 |
| 20260508074515 | 49 | 286 | 6.0 | 13.0 | 0.00 | 0.00 | 0.00 | 54 | 1013.4 |
| 20260508073008 | 48 | 339 | 5.0 | 10.0 | 0.00 | 0.00 | 0.00 | 57 | 1013.4 |
| 20260508071506 | 50 | 313 | 5.0 | 10.0 | 0.00 | 0.00 | 0.00 | 54 | 1013.4 |
| 20260508070004 | 50 | 323 | 4.0 | 10.0 | 0.00 | 0.00 | 0.00 | 57 | 1013.2 |
| 20260508064600 | 48 | 307 | 6.0 | 10.0 | 0.00 | 0.00 | 0.00 | 61 | 1013.2 |
| 20260508063057 | 43 | 326 | 2.0 | 8.0 | 0.00 | 0.00 | 0.00 | 66 | 1013.4 |
| 20260508061605 | 45 | 300 | 2.0 | 4.0 | 0.00 | 0.00 | 0.00 | 64 | 1013.2 |
| 20260508060050 | 45 | 300 | 2.0 | 3.0 | 0.00 | 0.00 | 0.00 | 63 | 1013.1 |
| 20260508054613 | 47 | 299 | 2.0 | 4.0 | 0.00 | 0.00 | 0.00 | 61 | 1013.2 |
| 20260508053049 | 47 | 300 | 2.0 | 5.0 | 0.00 | 0.00 | 0.00 | 61 | 1013.2 |
| 20260508051550 | 49 | 341 | 2.0 | 8.0 | 0.00 | 0.00 | 0.00 | 57 | 1013.1 |
| 20260508050049 | 51 | 360 | 4.0 | 10.0 | 0.00 | 0.00 | 0.00 | 56 | 1013.1 |
| 20260508044557 | 51 | 327 | 3.0 | 5.0 | 0.00 | 0.00 | 0.00 | 59 | 1013.0 |
| 20260508043046 | 52 | 281 | 1.0 | 4.0 | 0.00 | 0.00 | 0.00 | 57 | 1013.1 |
| 20260508041553 | 53 | 281 | 1.0 | 4.0 | 0.00 | 0.00 | 0.00 | 56 | 1013.0 |
| 20260508040052 | 55 | 281 | 3.0 | 5.0 | 0.00 | 0.00 | 0.00 | 55 | 1013.0 |
| 20260508034544 | 56 | 281 | 2.0 | 6.0 | 0.00 | 0.00 | 0.00 | 53 | 1013.0 |
| 20260508033043 | 57 | 271 | 2.0 | 6.0 | 0.00 | 0.00 | 0.00 | 51 | 1013.1 |
| 20260508031555 | 58 | 250 | 2.0 | 7.0 | 0.00 | 0.00 | 0.00 | 49 | 1013.0 |
| 20260508030054 | 58 | 275 | 6.0 | 9.0 | 0.00 | 0.00 | 0.00 | 49 | 1012.8 |
| 20260508024542 | 57 | 254 | 3.0 | 7.0 | 0.00 | 0.00 | 0.00 | 51 | 1012.7 |
| 20260508023045 | 59 | 255 | 1.0 | 5.0 | 0.00 | 0.00 | 0.00 | 51 | 1012.4 |
| 20260508021541 | 60 | 255 | 1.0 | 3.0 | 0.00 | 0.00 | 0.00 | 48 | 1012.3 |
| 20260508020042 | 61 | 255 | 1.0 | 3.0 | 0.00 | 0.00 | 0.00 | 48 | 1012.1 |
| 20260508014540 | 61 | 254 | 2.0 | 7.0 | 0.00 | 0.00 | 0.00 | 47 | 1012.0 |
| 20260508013038 | 63 | 242 | 4.0 | 8.0 | 0.00 | 0.00 | 0.00 | 46 | 1011.8 |
| 20260508011538 | 64 | 252 | 7.0 | 14.0 | 0.00 | 0.00 | 0.00 | 44 | 1011.9 |
| 20260508010042 | 64 | 237 | 6.0 | 14.0 | 0.00 | 0.00 | 0.00 | 48 | 1011.9 |
| 20260508004539 | 64 | 239 | 9.0 | 15.0 | 0.00 | 0.00 | 0.00 | 42 | 1012.0 |
| 20260508003036 | 66 | 275 | 6.0 | 15.0 | 0.00 | 0.00 | 0.00 | 40 | 1011.8 |
| 20260508001540 | 66 | 254 | 8.0 | 14.0 | 0.00 | 0.00 | 0.00 | 41 | 1011.8 |
| 20260508000034 | 66 | 264 | 6.0 | 16.0 | 0.00 | 0.00 | 0.00 | 33 | 1011.9 |
| 20260507234538 | 68 | 17 | 11.0 | 18.0 | 0.00 | 0.00 | 0.00 | 32 | 1011.5 |
| 20260507233032 | 68 | 324 | 7.0 | 14.0 | 0.00 | 0.00 | 0.00 | 31 | 1011.5 |
| 20260507231536 | 69 | 311 | 8.0 | 17.0 | 0.00 | 0.00 | 0.00 | 31 | 1011.5 |
| 20260507230035 | 68 | 283 | 5.0 | 15.0 | 0.00 | 0.00 | 0.00 | 30 | 1011.5 |
| 20260507224548 | 68 | 346 | 9.0 | 14.0 | 0.00 | 0.00 | 0.00 | 31 | 1011.6 |
| 20260507223030 | 67 | 311 | 11.0 | 19.0 | 0.00 | 0.00 | 0.00 | 31 | 1011.7 |
| 20260507221536 | 68 | 294 | 7.0 | 13.0 | 0.00 | 0.00 | 0.00 | 31 | 1011.8 |
| 20260507220033 | 68 | 317 | 8.0 | 18.0 | 0.00 | 0.00 | 0.00 | 31 | 1011.8 |
| 20260507214534 | 69 | 321 | 11.0 | 17.0 | 0.00 | 0.00 | 0.00 | 31 | 1011.9 |
| 20260507213034 | 69 | 324 | 10.0 | 19.0 | 0.00 | 0.00 | 0.00 | 30 | 1012.0 |
| 20260507211527 | 68 | 314 | 11.0 | 18.0 | 0.00 | 0.00 | 0.00 | 30 | 1012.2 |
| 20260507210046 | 68 | 283 | 12.0 | 29.0 | 0.00 | 0.00 | 0.00 | 31 | 1012.2 |
| 20260507204525 | 69 | 12 | 10.0 | 19.0 | 0.00 | 0.00 | 0.00 | 30 | 1012.3 |
| 20260507203025 | 67 | 310 | 11.0 | 17.0 | 0.00 | 0.00 | 0.00 | 32 | 1012.4 |
| 20260507201522 | 67 | 301 | 10.0 | 17.0 | 0.00 | 0.00 | 0.00 | 33 | 1012.4 |
| 20260507200034 | 66 | 292 | 11.0 | 17.0 | 0.00 | 0.00 | 0.00 | 33 | 1012.4 |
| 20260507194521 | 65 | 327 | 7.0 | 15.0 | 0.00 | 0.00 | 0.00 | 34 | 1012.3 |
| 20260507193026 | 68 | 344 | 9.0 | 16.0 | 0.00 | 0.00 | 0.00 | 32 | 1012.2 |
| 20260507191525 | 65 | 315 | 8.0 | 16.0 | 0.00 | 0.00 | 0.00 | 36 | 1012.2 |
| 20260507190029 | 65 | 272 | 7.0 | 11.0 | 0.00 | 0.00 | 0.00 | 37 | 1012.2 |
| 20260507184517 | 64 | 295 | 9.0 | 17.0 | 0.00 | 0.00 | 0.00 | 37 | 1012.4 |
| 20260507183034 | 65 | 338 | 9.0 | 15.0 | 0.00 | 0.00 | 0.00 | 36 | 1012.4 |
| 20260507181516 | 67 | 323 | 9.0 | 17.0 | 0.00 | 0.00 | 0.00 | 35 | 1012.4 |
| 20260507180014 | 66 | 319 | 10.0 | 18.0 | 0.00 | 0.00 | 0.00 | 36 | 1012.5 |
| 20260507174515 | 66 | 355 | 11.0 | 19.0 | 0.00 | 0.00 | 0.00 | 37 | 1012.7 |
| 20260507173017 | 66 | 355 | 11.0 | 19.0 | 0.00 | 0.00 | 0.00 | 37 | 1012.7 |
| 20260507171508 | 65 | 321 | 10.0 | 18.0 | 0.00 | 0.00 | 0.00 | 38 | 1012.8 |
| 20260507170007 | 66 | 355 | 12.0 | 23.0 | 0.00 | 0.00 | 0.00 | 37 | 1012.8 |
| 20260507164504 | 65 | 340 | 13.0 | 20.0 | 0.00 | 0.00 | 0.00 | 37 | 1012.8 |
| 20260507163004 | 65 | 318 | 9.0 | 19.0 | 0.00 | 0.00 | 0.00 | 39 | 1012.7 |
| 20260507161501 | 64 | 346 | 9.0 | 19.0 | 0.00 | 0.00 | 0.00 | 39 | 1012.7 |
| 20260507160117 | 63 | 317 | 8.0 | 17.0 | 0.00 | 0.00 | 0.00 | 39 | 1012.8 |
| 20260507154555 | 62 | 263 | 6.0 | 11.0 | 0.00 | 0.00 | 0.00 | 42 | 1012.9 |
| 20260507153052 | 61 | 273 | 4.0 | 10.0 | 0.00 | 0.00 | 0.00 | 42 | 1012.8 |
| 20260507151549 | 60 | 284 | 3.0 | 8.0 | 0.00 | 0.00 | 0.00 | 44 | 1012.8 |
| 20260507150044 | 57 | 307 | 1.0 | 3.0 | 0.00 | 0.00 | 0.00 | 49 | 1012.9 |
| 20260507144550 | 54 | 307 | 0.0 | 1.0 | 0.00 | 0.00 | 0.00 | 53 | 1012.9 |
| 20260507143039 | 53 | 307 | 0.0 | 4.0 | 0.00 | 0.00 | 0.00 | 53 | 1012.9 |
| 20260507141540 | 51 | 311 | 3.0 | 5.0 | 0.00 | 0.00 | 0.00 | 55 | 1013.0 |
| 20260507140035 | 50 | 302 | 2.0 | 3.0 | 0.00 | 0.00 | 0.00 | 57 | 1012.9 |
| 20260507134531 | 48 | 282 | 2.0 | 5.0 | 0.00 | 0.00 | 0.00 | 59 | 1012.7 |
| 20260507133028 | 47 | 323 | 3.0 | 4.0 | 0.00 | 0.00 | 0.00 | 60 | 1012.6 |
| 20260507131529 | 45 | 288 | 1.0 | 5.0 | 0.00 | 0.00 | 0.00 | 61 | 1012.6 |
| 20260507130031 | 45 | 288 | 1.0 | 3.0 | 0.00 | 0.00 | 0.00 | 60 | 1012.5 |
| 20260507124522 | 45 | 288 | 3.0 | 8.0 | 0.00 | 0.00 | 0.00 | 59 | 1012.4 |
| 20260507123026 | 43 | 322 | 2.0 | 3.0 | 0.00 | 0.00 | 0.00 | 60 | 1012.2 |
| 20260507121515 | 43 | 329 | 3.0 | 8.0 | 0.00 | 0.00 | 0.00 | 61 | 1012.0 |